createdAt,value
2023-11-07T00:04:01.863Z,9.40
2023-11-07T00:09:05.480Z,8.90
2023-11-07T00:14:08.867Z,7.10
2023-11-07T00:19:13.031Z,7.50
2023-11-07T00:24:16.601Z,7.40
2023-11-07T00:29:21.768Z,11.70
2023-11-07T00:34:25.347Z,11.00
2023-11-07T00:39:28.688Z,9.60
2023-11-07T00:44:33.159Z,11.00
2023-11-07T00:49:36.617Z,7.40
2023-11-07T00:54:39.984Z,8.70
2023-11-07T00:59:43.465Z,7.80
2023-11-07T01:04:46.938Z,8.40
2023-11-07T01:09:50.550Z,9.40
2023-11-07T01:14:53.998Z,9.80
2023-11-07T01:19:57.464Z,10.70
2023-11-07T01:25:00.829Z,10.60
2023-11-07T01:30:06.340Z,8.70
2023-11-07T01:35:13.013Z,9.70
2023-11-07T01:40:16.371Z,12.70
2023-11-07T01:45:19.883Z,12.30
2023-11-07T01:50:23.380Z,11.00
2023-11-07T01:55:26.861Z,12.70
2023-11-07T02:00:31.421Z,11.50
2023-11-07T02:05:36.059Z,10.70
2023-11-07T02:10:39.681Z,10.70
2023-11-07T02:15:43.099Z,8.60
2023-11-07T02:20:49.621Z,11.00
2023-11-07T02:25:53.449Z,10.80
2023-11-07T02:30:56.824Z,14.30
2023-11-07T02:36:01.608Z,11.60
2023-11-07T02:41:06.315Z,10.00
2023-11-07T02:46:09.686Z,11.80
2023-11-07T02:51:19.804Z,11.00
2023-11-07T02:56:29.919Z,8.00
2023-11-07T03:01:33.960Z,7.30
2023-11-07T03:06:37.428Z,7.50
2023-11-07T03:11:41.142Z,9.40
2023-11-07T03:16:44.626Z,10.50
2023-11-07T03:21:48.023Z,8.30
2023-11-07T03:26:51.505Z,7.50
2023-11-07T03:31:55.153Z,8.80
2023-11-07T03:36:58.609Z,7.90
2023-11-07T03:42:02.473Z,9.80
2023-11-07T03:47:07.232Z,8.90
2023-11-07T03:52:10.614Z,8.90
2023-11-07T03:57:13.951Z,10.30
2023-11-07T04:02:17.433Z,7.40
2023-11-07T04:07:20.817Z,7.50
2023-11-07T04:12:24.322Z,9.90
2023-11-07T04:17:27.736Z,10.50
2023-11-07T04:22:31.217Z,6.40
2023-11-07T04:27:36.200Z,8.00
2023-11-07T04:32:41.800Z,9.90
2023-11-07T04:37:45.249Z,7.80
2023-11-07T04:42:49.631Z,9.30
2023-11-07T04:47:53.193Z,11.50
2023-11-07T04:52:56.741Z,9.00
2023-11-07T04:58:02.707Z,8.50
2023-11-07T05:03:06.959Z,10.10
2023-11-07T05:08:10.542Z,10.60
2023-11-07T05:13:15.916Z,8.10
2023-11-07T05:18:20.358Z,7.00
2023-11-07T05:23:24.166Z,10.80
2023-11-07T05:28:27.528Z,8.70
2023-11-07T05:33:32.376Z,6.10
2023-11-07T05:38:35.855Z,8.90
2023-11-07T05:43:44.650Z,8.60
2023-11-07T05:48:49.466Z,8.40
2023-11-07T05:53:53.201Z,8.60
2023-11-07T05:58:56.651Z,8.40
2023-11-07T06:04:00.202Z,10.00
2023-11-07T06:09:04.258Z,10.70
2023-11-07T06:14:07.643Z,7.20
2023-11-07T06:19:12.490Z,12.60
2023-11-07T06:24:17.249Z,10.00
2023-11-07T06:29:21.651Z,7.70
2023-11-07T06:34:36.024Z,10.00
2023-11-07T06:39:45.828Z,10.20
2023-11-07T06:44:49.720Z,9.20
2023-11-07T06:49:53.380Z,9.90
2023-11-07T06:54:56.985Z,9.20
2023-11-07T07:00:00.430Z,9.20
2023-11-07T07:05:12.357Z,12.30
2023-11-07T07:10:15.848Z,6.80
2023-11-07T07:15:19.558Z,8.60
2023-11-07T07:20:25.560Z,8.50
2023-11-07T07:25:28.967Z,10.10
2023-11-07T07:30:33.936Z,10.40
2023-11-07T07:35:41.953Z,11.10
2023-11-07T07:40:45.442Z,8.70
2023-11-07T07:45:48.780Z,10.10
2023-11-07T07:51:00.643Z,11.30
2023-11-07T07:56:13.991Z,8.90
2023-11-07T08:01:21.561Z,9.10
2023-11-07T08:06:25.972Z,8.60
2023-11-07T08:11:31.421Z,9.50
2023-11-07T08:16:35.013Z,8.40
2023-11-07T08:21:42.362Z,6.70
2023-11-07T08:26:45.911Z,7.50
2023-11-07T08:31:49.693Z,7.30
2023-11-07T08:37:02.004Z,7.60
2023-11-07T08:42:12.644Z,6.20
2023-11-07T08:47:16.122Z,9.20
2023-11-07T08:52:19.539Z,8.80
2023-11-07T08:57:24.956Z,10.30
2023-11-07T09:02:28.549Z,10.00
2023-11-07T09:07:32.474Z,10.10
2023-11-07T09:12:35.898Z,12.50
2023-11-07T09:17:43.846Z,12.80
2023-11-07T09:22:48.179Z,9.30
2023-11-07T09:27:53.861Z,9.50
2023-11-07T09:39:24.080Z,7.90
2023-11-07T09:47:54.176Z,6.30
2023-11-07T09:53:19.468Z,8.00
2023-11-07T09:58:33.789Z,7.50
2023-11-07T10:03:40.735Z,7.30
2023-11-07T10:08:43.931Z,12.80
2023-11-07T10:14:25.929Z,12.80
2023-11-07T10:19:30.989Z,10.00
2023-11-07T10:24:46.569Z,9.30
2023-11-07T10:29:59.709Z,9.70
2023-11-07T10:35:03.325Z,11.00
2023-11-07T10:40:06.948Z,13.40
2023-11-07T10:45:15.300Z,15.60
2023-11-07T10:50:18.416Z,13.70
2023-11-07T10:55:41.750Z,11.80
2023-11-07T11:00:51.402Z,10.20
2023-11-07T11:06:01.404Z,10.20
2023-11-07T11:11:04.878Z,7.70
2023-11-07T11:16:09.051Z,7.50
2023-11-07T11:21:17.823Z,10.50
2023-11-07T11:26:31.327Z,7.10
2023-11-07T11:31:42.988Z,9.70
2023-11-07T11:37:00.932Z,8.40
2023-11-07T11:42:06.632Z,13.40
2023-11-07T11:47:10.091Z,10.70
2023-11-07T11:52:35.287Z,14.80
2023-11-07T11:58:43.794Z,8.50
2023-11-07T12:04:37.116Z,10.20
2023-11-07T12:09:50.519Z,7.70
2023-11-07T12:15:10.197Z,6.30
2023-11-07T12:20:17.809Z,7.80
2023-11-07T12:25:22.129Z,6.70
2023-11-07T12:30:25.524Z,8.30
2023-11-07T12:35:37.650Z,6.60
2023-11-07T12:40:41.109Z,7.90
2023-11-07T12:45:48.779Z,8.30
2023-11-07T12:50:50.974Z,11.00
2023-11-07T12:55:55.163Z,9.50
2023-11-07T13:00:59.464Z,8.60
2023-11-07T13:06:04.876Z,9.80
2023-11-07T13:11:09.633Z,8.30
2023-11-07T13:16:12.255Z,8.50
2023-11-07T13:21:15.403Z,6.20
2023-11-07T13:26:18.349Z,5.30
2023-11-07T13:31:20.417Z,7.00
2023-11-07T13:36:23.109Z,5.60
2023-11-07T13:41:25.183Z,7.20
2023-11-07T13:46:28.236Z,6.00
2023-11-07T13:51:30.479Z,7.80
2023-11-07T13:56:33.077Z,6.60
2023-11-07T14:01:39.188Z,5.90
2023-11-07T14:06:41.669Z,7.70
2023-11-07T14:11:44.313Z,10.50
2023-11-07T14:16:47.612Z,11.70
2023-11-07T14:21:50.285Z,8.30
2023-11-07T14:26:54.753Z,8.30
2023-11-07T14:31:56.929Z,6.60
2023-11-07T14:36:58.993Z,12.20
2023-11-07T14:42:02.920Z,10.10
2023-11-07T14:47:05.090Z,11.30
2023-11-07T14:52:08.885Z,16.00
2023-11-07T14:57:12.194Z,13.30
2023-11-07T15:02:22.231Z,12.00
2023-11-07T15:07:29.776Z,13.70
2023-11-07T15:12:31.872Z,14.50
2023-11-07T15:17:36.910Z,18.40
2023-11-07T15:22:40.399Z,25.10
2023-11-07T15:27:44.306Z,29.40
2023-11-07T15:32:48.371Z,24.50
2023-11-07T15:37:50.512Z,17.30
2023-11-07T15:42:52.712Z,13.90
2023-11-07T15:47:54.838Z,10.60
2023-11-07T15:53:07.477Z,7.40
2023-11-07T15:58:12.115Z,8.60
2023-11-07T16:03:17.145Z,8.60
2023-11-07T16:08:19.879Z,9.60
2023-11-07T16:13:22.359Z,7.30
2023-11-07T16:18:27.566Z,11.10
2023-11-07T16:23:30.232Z,12.00
2023-11-07T16:28:32.294Z,18.00
2023-11-07T16:33:34.887Z,9.80
2023-11-07T16:38:37.684Z,10.40
2023-11-07T16:43:39.757Z,12.50
2023-11-07T16:48:42.255Z,11.10
2023-11-07T16:53:45.315Z,9.30
2023-11-07T16:58:48.252Z,9.60
2023-11-07T17:03:50.827Z,8.70
2023-11-07T17:08:52.961Z,9.70
2023-11-07T17:13:55.159Z,15.60
2023-11-07T17:18:58.440Z,17.10
2023-11-07T17:24:01.094Z,20.30
2023-11-07T17:29:04.056Z,12.80
2023-11-07T17:34:09.205Z,10.00
2023-11-07T17:39:18.221Z,10.90
2023-11-07T17:44:21.658Z,10.60
2023-11-07T17:49:23.815Z,11.90
2023-11-07T17:54:25.831Z,12.20
2023-11-07T17:59:27.997Z,12.50
2023-11-07T18:04:30.878Z,13.80
2023-11-07T18:09:34.846Z,14.50
2023-11-07T18:14:38.440Z,14.60
2023-11-07T18:19:40.860Z,11.30
2023-11-07T18:24:44.626Z,15.00
2023-11-07T18:29:46.628Z,14.00
2023-11-07T18:34:48.796Z,13.80
2023-11-07T18:39:51.022Z,14.00
2023-11-07T18:44:53.631Z,14.20
2023-11-07T18:49:57.742Z,14.10
2023-11-07T18:55:01.551Z,15.50
2023-11-07T19:00:04.964Z,14.00
2023-11-07T19:05:07.632Z,16.20
2023-11-07T19:10:09.816Z,15.60
2023-11-07T19:15:15.503Z,16.00
2023-11-07T19:20:18.948Z,16.20
2023-11-07T19:25:22.839Z,16.30
2023-11-07T19:30:25.819Z,16.60
2023-11-07T19:35:28.016Z,12.10
2023-11-07T19:40:32.225Z,14.30
2023-11-07T19:45:34.624Z,15.90
2023-11-07T19:50:37.204Z,17.20
2023-11-07T19:55:39.386Z,16.10
2023-11-07T20:00:41.528Z,14.30
2023-11-07T20:05:45.843Z,16.00
2023-11-07T20:10:47.880Z,13.70
2023-11-07T20:15:50.104Z,14.90
2023-11-07T20:20:52.777Z,15.40
2023-11-07T20:25:55.374Z,13.50
2023-11-07T20:30:57.501Z,16.40
2023-11-07T20:36:01.866Z,14.40
2023-11-07T20:41:04.585Z,15.90
2023-11-07T20:46:15.650Z,15.50
2023-11-07T20:51:24.713Z,15.30
2023-11-07T20:56:30.584Z,13.50
2023-11-07T21:01:33.296Z,12.20
2023-11-07T21:06:35.488Z,12.30
2023-11-07T21:11:37.836Z,16.60
2023-11-07T21:16:39.918Z,14.90
2023-11-07T21:21:42.084Z,12.10
2023-11-07T21:26:45.130Z,14.40
2023-11-07T21:31:48.369Z,12.20
2023-11-07T21:36:50.626Z,14.50
2023-11-07T21:41:53.860Z,12.60
2023-11-07T21:46:55.885Z,14.90
2023-11-07T21:51:58.369Z,13.80
2023-11-07T21:57:02.036Z,13.80
2023-11-07T22:02:04.558Z,16.10
2023-11-07T22:07:06.671Z,15.80
2023-11-07T22:12:08.975Z,11.70
2023-11-07T22:17:11.263Z,14.20
2023-11-07T22:22:15.958Z,15.10
2023-11-07T22:27:19.213Z,13.30
2023-11-07T22:32:22.585Z,13.20
2023-11-07T22:37:25.312Z,14.20
2023-11-07T22:42:28.115Z,13.50
2023-11-07T22:47:30.665Z,17.50
2023-11-07T22:52:36.216Z,15.10
2023-11-07T22:57:39.279Z,13.70
2023-11-07T23:02:41.392Z,11.50
2023-11-07T23:07:43.404Z,15.40
2023-11-07T23:12:45.475Z,16.20
2023-11-07T23:17:47.852Z,13.90
2023-11-07T23:22:50.184Z,12.60
2023-11-07T23:27:52.469Z,14.40
2023-11-07T23:32:54.710Z,14.50
2023-11-07T23:37:57.855Z,15.50
2023-11-07T23:43:01.312Z,14.40
2023-11-07T23:48:03.828Z,16.30
2023-11-07T23:53:06.553Z,15.10
2023-11-07T23:58:08.569Z,15.80
